createdAt,value
2019-05-14T00:01:44.588Z,2.47
2019-05-14T00:04:14.962Z,2.30
2019-05-14T00:06:46.226Z,1.80
2019-05-14T00:09:16.524Z,2.43
2019-05-14T00:11:47.088Z,2.10
2019-05-14T00:14:17.389Z,1.83
2019-05-14T00:16:47.684Z,2.20
2019-05-14T00:19:18.029Z,2.40
2019-05-14T00:21:51.446Z,2.30
2019-05-14T00:24:21.827Z,2.13
2019-05-14T00:26:52.207Z,2.10
2019-05-14T00:29:22.499Z,2.27
2019-05-14T00:31:52.795Z,2.00
2019-05-14T00:34:23.117Z,1.70
2019-05-14T00:36:53.407Z,2.17
2019-05-14T00:39:24.168Z,2.03
2019-05-14T00:41:54.463Z,1.87
2019-05-14T00:44:25.172Z,2.00
2019-05-14T00:46:55.867Z,1.73
2019-05-14T00:49:26.501Z,2.23
2019-05-14T00:51:56.796Z,1.77
2019-05-14T00:54:27.456Z,1.93
2019-05-14T00:56:57.822Z,2.07
2019-05-14T00:59:28.177Z,1.97
2019-05-14T01:01:58.470Z,2.03
2019-05-14T01:04:28.941Z,2.03
2019-05-14T01:07:01.570Z,2.20
2019-05-14T01:09:31.802Z,1.63
2019-05-14T01:12:02.528Z,2.33
2019-05-14T01:14:33.188Z,2.23
2019-05-14T01:17:03.480Z,2.13
2019-05-14T01:19:33.841Z,2.40
2019-05-14T01:22:04.517Z,2.20
2019-05-14T01:24:34.800Z,2.30
2019-05-14T01:27:05.429Z,2.30
2019-05-14T01:29:35.729Z,2.30
2019-05-14T01:32:06.692Z,2.23
2019-05-14T01:34:37.041Z,2.43
2019-05-14T01:37:07.324Z,2.40
2019-05-14T01:39:37.773Z,2.40
2019-05-14T01:42:08.534Z,2.30
2019-05-14T01:44:41.256Z,2.20
2019-05-14T01:47:12.751Z,2.40
2019-05-14T01:49:43.244Z,2.40
2019-05-14T01:52:13.540Z,2.30
2019-05-14T01:54:43.853Z,2.03
2019-05-14T01:57:15.480Z,2.37
2019-05-14T01:59:45.774Z,2.23
2019-05-14T02:02:16.432Z,2.40
2019-05-14T02:04:48.513Z,2.10
2019-05-14T02:07:18.874Z,2.70
2019-05-14T02:09:51.735Z,2.23
2019-05-14T02:12:22.497Z,2.50
2019-05-14T02:14:52.901Z,2.50
2019-05-14T02:17:23.193Z,3.00
2019-05-14T02:19:53.522Z,2.53
2019-05-14T02:22:23.884Z,2.57
2019-05-14T02:24:54.501Z,2.97
2019-05-14T02:27:24.801Z,2.53
2019-05-14T02:29:55.509Z,2.33
2019-05-14T02:32:29.570Z,2.80
2019-05-14T02:34:59.004Z,2.80
2019-05-14T02:37:30.199Z,2.90
2019-05-14T02:40:01.073Z,2.83
2019-05-14T02:42:31.562Z,2.90
2019-05-14T02:45:02.053Z,2.93
2019-05-14T02:47:32.644Z,2.47
2019-05-14T02:50:03.446Z,3.03
2019-05-14T02:52:33.921Z,2.90
2019-05-14T02:55:04.773Z,3.03
2019-05-14T02:57:35.198Z,3.47
2019-05-14T03:00:09.794Z,3.27
2019-05-14T03:02:40.342Z,2.93
2019-05-14T03:05:11.112Z,2.63
2019-05-14T03:07:42.349Z,3.10
2019-05-14T03:10:13.225Z,3.40
2019-05-14T03:12:43.699Z,3.30
2019-05-14T03:15:14.905Z,3.60
2019-05-14T03:17:45.432Z,3.30
2019-05-14T03:20:19.706Z,3.60
2019-05-14T03:23:01.818Z,3.60
2019-05-14T03:25:22.021Z,3.57
2019-05-14T03:27:52.445Z,3.43
2019-05-14T03:30:23.673Z,3.13
2019-05-14T03:32:54.258Z,3.73
2019-05-14T03:35:39.364Z,4.13
2019-05-14T03:38:00.156Z,3.80
2019-05-14T03:40:29.594Z,4.70
2019-05-14T03:43:00.139Z,3.90
2019-05-14T03:45:30.873Z,3.80
2019-05-14T03:48:01.708Z,4.03
2019-05-14T03:50:32.136Z,3.73
2019-05-14T03:53:02.896Z,3.97
2019-05-14T03:55:33.361Z,4.00
2019-05-14T03:58:03.881Z,3.30
2019-05-14T04:00:50.836Z,4.07
2019-05-14T04:03:22.157Z,4.20
2019-05-14T04:05:54.221Z,4.23
2019-05-14T04:08:29.325Z,4.90
2019-05-14T04:11:00.707Z,4.67
2019-05-14T04:13:33.096Z,4.40
2019-05-14T04:16:04.446Z,3.90
2019-05-14T04:18:40.182Z,4.30
2019-05-14T04:21:14.245Z,5.43
2019-05-14T04:23:51.015Z,4.37
2019-05-14T04:26:23.892Z,4.73
2019-05-14T04:29:00.197Z,5.00
2019-05-14T04:31:32.699Z,5.77
2019-05-14T04:34:04.373Z,5.50
2019-05-14T04:36:35.278Z,5.30
2019-05-14T04:39:09.555Z,5.30
2019-05-14T04:41:39.985Z,4.70
2019-05-14T04:44:10.418Z,5.33
2019-05-14T04:46:40.844Z,4.33
2019-05-14T04:49:11.329Z,5.63
2019-05-14T04:51:41.770Z,5.80
2019-05-14T04:54:13.161Z,5.50
2019-05-14T04:56:43.626Z,4.63
2019-05-14T04:59:14.086Z,5.03
2019-05-14T05:01:44.518Z,4.67
2019-05-14T05:04:15.433Z,6.37
2019-05-14T05:06:45.863Z,5.97
2019-05-14T05:09:19.787Z,4.97
2019-05-14T05:11:49.733Z,4.27
2019-05-14T05:14:23.724Z,5.50
2019-05-14T05:16:53.048Z,4.50
2019-05-14T05:19:24.551Z,3.83
2019-05-14T05:21:55.851Z,4.57
2019-05-14T05:24:28.559Z,4.90
2019-05-14T05:26:58.766Z,5.50
2019-05-14T05:29:29.905Z,4.90
2019-05-14T05:32:00.334Z,4.67
2019-05-14T05:34:30.816Z,4.70
2019-05-14T05:37:01.248Z,5.00
2019-05-14T05:39:31.675Z,4.23
2019-05-14T05:42:02.156Z,4.97
2019-05-14T05:44:32.904Z,4.43
2019-05-14T05:47:03.362Z,4.40
2019-05-14T05:49:33.845Z,4.70
2019-05-14T05:52:04.611Z,4.53
2019-05-14T05:54:35.380Z,4.90
2019-05-14T05:57:06.098Z,3.90
2019-05-14T05:59:39.179Z,3.73
2019-05-14T06:02:09.604Z,3.80
2019-05-14T06:04:40.141Z,3.60
2019-05-14T06:07:10.978Z,3.37
2019-05-14T06:09:41.401Z,3.50
2019-05-14T06:12:12.181Z,3.13
2019-05-14T06:14:42.980Z,3.27
2019-05-14T06:17:13.853Z,3.30
2019-05-14T06:19:44.510Z,2.60
2019-05-14T06:22:14.945Z,3.13
2019-05-14T06:24:48.353Z,3.43
2019-05-14T06:27:18.290Z,3.83
2019-05-14T06:29:49.131Z,3.40
2019-05-14T06:32:19.569Z,3.20
2019-05-14T06:34:50.058Z,2.87
2019-05-14T06:37:20.490Z,2.60
2019-05-14T06:39:50.916Z,3.40
2019-05-14T06:42:21.796Z,3.10
2019-05-14T06:44:52.267Z,2.90
2019-05-14T06:47:22.696Z,2.83
2019-05-14T06:49:53.653Z,2.70
2019-05-14T06:52:24.470Z,2.93
2019-05-14T06:54:54.905Z,2.93
2019-05-14T06:57:25.480Z,2.97
2019-05-14T06:59:58.743Z,3.27
2019-05-14T07:02:28.715Z,2.77
2019-05-14T07:04:59.242Z,3.03
2019-05-14T07:07:30.243Z,3.20
2019-05-14T07:10:00.847Z,3.10
2019-05-14T07:12:31.334Z,3.40
2019-05-14T07:15:02.196Z,3.30
2019-05-14T07:17:33.075Z,3.07
2019-05-14T07:20:03.551Z,2.93
2019-05-14T07:22:34.326Z,3.13
2019-05-14T07:25:05.736Z,3.00
2019-05-14T07:27:38.976Z,3.30
2019-05-14T07:30:09.529Z,3.20
2019-05-14T07:32:40.035Z,3.33
2019-05-14T07:35:10.898Z,2.93
2019-05-14T07:37:41.325Z,2.80
2019-05-14T07:40:12.316Z,3.03
2019-05-14T07:42:42.742Z,3.00
2019-05-14T07:45:13.698Z,3.33
2019-05-14T07:47:44.192Z,3.20
2019-05-14T07:50:15.105Z,3.10
2019-05-14T07:52:46.267Z,3.20
2019-05-14T07:55:18.475Z,2.90
2019-05-14T07:57:49.170Z,2.70
2019-05-14T08:00:20.205Z,2.70
2019-05-14T08:02:51.573Z,2.90
2019-05-14T08:05:22.014Z,3.10
2019-05-14T08:07:52.453Z,2.50
2019-05-14T08:10:23.045Z,2.47
2019-05-14T08:12:54.247Z,2.80
2019-05-14T08:15:25.033Z,2.47
2019-05-14T08:17:55.523Z,2.60
2019-05-14T08:20:25.958Z,2.27
2019-05-14T08:22:58.197Z,1.90
2019-05-14T08:25:29.008Z,2.07
2019-05-14T08:27:59.547Z,2.13
2019-05-14T08:30:29.991Z,2.20
2019-05-14T08:33:00.473Z,1.90
2019-05-14T08:35:34.045Z,1.90
2019-05-14T08:38:07.631Z,1.73
2019-05-14T08:40:35.258Z,1.80
2019-05-14T08:43:05.701Z,1.43
2019-05-14T08:45:36.130Z,1.63
2019-05-14T08:48:09.165Z,1.60
2019-05-14T08:50:39.272Z,1.67
2019-05-14T08:53:09.981Z,1.60
2019-05-14T08:55:40.760Z,1.80
2019-05-14T08:58:13.915Z,1.70
2019-05-14T09:00:43.326Z,1.40
2019-05-14T09:03:13.805Z,1.10
2019-05-14T09:05:44.285Z,1.27
2019-05-14T09:08:14.718Z,1.23
2019-05-14T09:10:45.212Z,0.93
2019-05-14T09:13:18.195Z,1.27
2019-05-14T09:15:48.920Z,1.00
2019-05-14T09:18:19.661Z,1.27
2019-05-14T09:20:50.089Z,1.30
2019-05-14T09:23:20.522Z,1.30
2019-05-14T09:25:53.402Z,1.20
2019-05-14T09:28:23.305Z,1.07
2019-05-14T09:30:54.707Z,1.00
2019-05-14T09:33:26.035Z,1.00
2019-05-14T09:36:13.738Z,1.07
2019-05-14T09:38:29.447Z,0.97
2019-05-14T09:41:10.610Z,1.13
2019-05-14T09:43:32.994Z,1.00
2019-05-14T09:46:03.438Z,1.20
2019-05-14T09:48:33.873Z,0.80
2019-05-14T09:51:04.449Z,1.27
2019-05-14T09:53:34.885Z,1.00
2019-05-14T09:56:05.327Z,1.00
2019-05-14T09:58:38.512Z,1.03
2019-05-14T10:01:08.713Z,1.20
2019-05-14T10:03:39.721Z,0.80
2019-05-14T10:06:10.210Z,0.90
2019-05-14T10:08:40.859Z,1.10
2019-05-14T10:11:11.329Z,1.20
2019-05-14T10:13:42.084Z,0.90
2019-05-14T10:16:12.518Z,1.00
2019-05-14T10:18:43.317Z,1.10
2019-05-14T10:21:14.124Z,0.97
2019-05-14T10:23:44.856Z,1.20
2019-05-14T10:26:18.537Z,1.00
2019-05-14T10:28:48.634Z,0.73
2019-05-14T10:31:19.235Z,1.10
2019-05-14T10:33:50.049Z,1.17
2019-05-14T10:36:20.549Z,0.90
2019-05-14T10:38:50.987Z,0.70
2019-05-14T10:41:21.440Z,1.10
2019-05-14T10:43:51.943Z,0.90
2019-05-14T10:46:22.387Z,1.00
2019-05-14T10:48:53.137Z,1.00
2019-05-14T10:51:23.982Z,0.90
2019-05-14T10:53:55.538Z,0.77
2019-05-14T10:56:25.992Z,0.80
2019-05-14T10:58:58.426Z,1.00
2019-05-14T11:01:29.408Z,0.73
2019-05-14T11:04:00.184Z,0.80
2019-05-14T11:06:31.100Z,0.70
2019-05-14T11:09:01.554Z,0.87
2019-05-14T11:11:31.981Z,0.90
2019-05-14T11:14:02.495Z,0.63
2019-05-14T11:16:32.925Z,0.90
2019-05-14T11:19:03.358Z,0.90
2019-05-14T11:21:33.935Z,0.90
2019-05-14T11:24:04.482Z,0.80
2019-05-14T11:26:34.916Z,0.90
2019-05-14T11:29:05.883Z,0.93
2019-05-14T11:31:39.094Z,1.10
2019-05-14T11:34:09.166Z,0.77
2019-05-14T11:36:39.658Z,1.10
2019-05-14T11:39:10.197Z,0.83
2019-05-14T11:41:40.632Z,0.97
2019-05-14T11:44:11.126Z,0.70
2019-05-14T11:46:51.368Z,1.03
2019-05-14T11:49:14.185Z,1.10
2019-05-14T11:52:00.940Z,0.93
2019-05-14T11:54:18.768Z,1.13
2019-05-14T11:56:49.409Z,0.77
2019-05-14T11:59:19.894Z,0.63
2019-05-14T12:01:50.345Z,1.00
2019-05-14T12:04:21.077Z,0.90
2019-05-14T12:06:51.572Z,0.80
2019-05-14T12:09:22.059Z,0.90
2019-05-14T12:11:52.493Z,0.90
2019-05-14T12:14:22.995Z,0.80
2019-05-14T12:16:53.445Z,0.93
2019-05-14T12:19:23.902Z,0.80
2019-05-14T12:22:06.340Z,0.87
2019-05-14T12:24:28.986Z,0.80
2019-05-14T12:26:58.813Z,0.90
2019-05-14T12:29:29.505Z,0.80
2019-05-14T12:31:59.957Z,0.83
2019-05-14T12:34:30.666Z,0.83
2019-05-14T12:37:01.119Z,0.90
2019-05-14T12:39:31.907Z,1.20
2019-05-14T12:42:02.586Z,1.10
2019-05-14T12:44:33.191Z,1.00
2019-05-14T12:47:03.642Z,0.90
2019-05-14T12:49:34.146Z,0.80
2019-05-14T12:52:19.030Z,0.90
2019-05-14T12:54:38.661Z,1.13
2019-05-14T12:57:09.796Z,0.90
2019-05-14T12:59:40.562Z,0.83
2019-05-14T13:02:11.032Z,0.90
2019-05-14T13:04:41.527Z,1.00
2019-05-14T13:07:11.959Z,0.83
2019-05-14T13:09:42.464Z,0.77
2019-05-14T13:12:13.205Z,0.90
2019-05-14T13:14:43.652Z,0.60
2019-05-14T13:17:14.129Z,1.00
2019-05-14T13:19:44.661Z,0.60
2019-05-14T13:22:19.091Z,0.80
2019-05-14T13:24:49.276Z,0.70
2019-05-14T13:27:19.519Z,0.70
2019-05-14T13:29:51.591Z,0.90
2019-05-14T13:32:22.093Z,0.60
2019-05-14T13:34:52.556Z,0.90
2019-05-14T13:37:23.761Z,0.83
2019-05-14T13:39:54.575Z,0.90
2019-05-14T13:42:25.020Z,0.70
2019-05-14T13:44:55.457Z,0.70
2019-05-14T13:47:28.628Z,0.87
2019-05-14T13:49:59.232Z,0.70
2019-05-14T13:52:30.267Z,0.80
2019-05-14T13:55:00.766Z,0.70
2019-05-14T13:57:31.584Z,0.70
2019-05-14T14:00:02.038Z,0.80
2019-05-14T14:02:32.552Z,0.73
2019-05-14T14:05:03.401Z,0.70
2019-05-14T14:07:34.241Z,0.87
2019-05-14T14:10:04.880Z,0.87
2019-05-14T14:12:35.316Z,0.70
2019-05-14T14:15:09.555Z,0.80
2019-05-14T14:17:39.620Z,0.70
2019-05-14T14:20:10.997Z,0.90
2019-05-14T14:22:41.444Z,0.97
2019-05-14T14:25:12.555Z,0.70
2019-05-14T14:27:43.005Z,0.80
2019-05-14T14:30:14.785Z,0.87
2019-05-14T14:32:45.265Z,0.93
2019-05-14T14:35:15.864Z,0.70
2019-05-14T14:37:49.188Z,0.80
2019-05-14T14:40:22.054Z,0.80
2019-05-14T14:42:51.303Z,0.87
2019-05-14T14:45:22.043Z,0.70
2019-05-14T14:47:52.981Z,0.60
2019-05-14T14:50:23.413Z,0.70
2019-05-14T14:52:54.251Z,0.77
2019-05-14T14:55:24.757Z,0.70
2019-05-14T14:57:55.782Z,0.80
2019-05-14T15:00:29.146Z,0.70
2019-05-14T15:02:59.666Z,0.63
2019-05-14T15:05:30.434Z,0.70
2019-05-14T15:08:01.147Z,0.60
2019-05-14T15:10:31.975Z,0.70
2019-05-14T15:13:02.798Z,0.63
2019-05-14T15:15:34.821Z,0.80
2019-05-14T15:18:05.686Z,0.77
2019-05-14T15:20:36.406Z,0.80
2019-05-14T15:23:09.772Z,1.00
2019-05-14T15:25:39.238Z,0.80
2019-05-14T15:28:09.716Z,0.70
2019-05-14T15:30:40.326Z,0.80
2019-05-14T15:33:10.842Z,0.90
2019-05-14T15:35:41.300Z,0.90
2019-05-14T15:38:11.753Z,0.50
2019-05-14T15:40:42.242Z,0.73
2019-05-14T15:43:13.089Z,0.67
2019-05-14T15:45:43.539Z,0.60
2019-05-14T15:48:14.804Z,0.80
2019-05-14T15:50:46.311Z,0.70
2019-05-14T15:53:19.285Z,0.70
2019-05-14T15:55:49.365Z,0.70
2019-05-14T15:58:21.229Z,0.80
2019-05-14T16:00:51.933Z,0.90
2019-05-14T16:03:22.757Z,0.80
2019-05-14T16:05:53.189Z,0.80
2019-05-14T16:08:23.642Z,0.73
2019-05-14T16:10:54.134Z,1.00
2019-05-14T16:13:24.896Z,0.90
2019-05-14T16:15:55.737Z,0.80
2019-05-14T16:18:26.406Z,0.80
2019-05-14T16:20:59.375Z,1.00
2019-05-14T16:23:29.010Z,1.17
2019-05-14T16:25:59.505Z,0.80
2019-05-14T16:28:29.959Z,0.60
2019-05-14T16:31:00.769Z,0.73
2019-05-14T16:33:31.596Z,0.83
2019-05-14T16:36:02.345Z,0.90
2019-05-14T16:38:32.796Z,0.90
2019-05-14T16:41:04.391Z,0.80
2019-05-14T16:43:34.817Z,0.73
2019-05-14T16:46:05.684Z,0.77
2019-05-14T16:48:36.168Z,0.93
2019-05-14T16:51:08.884Z,0.77
2019-05-14T16:53:39.513Z,0.70
2019-05-14T16:56:09.992Z,1.00
2019-05-14T16:58:40.438Z,0.63
2019-05-14T17:01:11.183Z,0.80
2019-05-14T17:03:41.671Z,0.80
2019-05-14T17:06:12.437Z,0.90
2019-05-14T17:08:42.908Z,0.80
2019-05-14T17:11:13.786Z,0.90
2019-05-14T17:13:44.626Z,0.80
2019-05-14T17:16:15.057Z,0.97
2019-05-14T17:18:48.432Z,0.60
2019-05-14T17:21:18.408Z,0.80
2019-05-14T17:23:49.157Z,0.97
2019-05-14T17:26:19.848Z,0.87
2019-05-14T17:28:50.328Z,0.83
2019-05-14T17:31:20.782Z,0.80
2019-05-14T17:33:51.852Z,0.80
2019-05-14T17:36:22.285Z,0.83
2019-05-14T17:38:53.094Z,0.97
2019-05-14T17:41:23.592Z,0.70
2019-05-14T17:43:55.548Z,0.90
2019-05-14T17:46:28.833Z,0.80
2019-05-14T17:49:00.445Z,0.90
2019-05-14T17:51:31.508Z,0.70
2019-05-14T17:54:02.352Z,0.97
2019-05-14T17:56:33.597Z,1.10
2019-05-14T17:59:04.334Z,0.90
2019-05-14T18:01:35.657Z,0.80
2019-05-14T18:04:08.605Z,0.77
2019-05-14T18:06:38.698Z,0.90
2019-05-14T18:09:09.258Z,1.00
2019-05-14T18:11:40.651Z,1.00
2019-05-14T18:14:11.809Z,0.70
2019-05-14T18:16:43.053Z,0.90
2019-05-14T18:19:13.533Z,0.90
2019-05-14T18:21:43.989Z,1.00
2019-05-14T18:24:15.217Z,0.60
2019-05-14T18:26:47.953Z,0.80
2019-05-14T18:29:18.937Z,0.73
2019-05-14T18:31:53.908Z,1.00
2019-05-14T18:34:22.149Z,1.00
2019-05-14T18:36:53.749Z,0.93
2019-05-14T18:39:44.532Z,0.80
2019-05-14T18:42:15.349Z,2.40
2019-05-14T18:44:49.605Z,1.70
2019-05-14T18:47:20.008Z,1.30
2019-05-14T18:49:50.615Z,0.90
2019-05-14T18:52:21.733Z,1.30
2019-05-14T18:54:52.589Z,1.00
2019-05-14T18:57:23.042Z,0.97
2019-05-14T18:59:53.474Z,0.70
2019-05-14T19:02:25.561Z,0.70
2019-05-14T19:04:57.974Z,0.70
2019-05-14T19:07:28.899Z,0.90
2019-05-14T19:09:59.432Z,0.90
2019-05-14T19:12:29.876Z,1.17
2019-05-14T19:15:01.827Z,0.90
2019-05-14T19:17:32.685Z,1.07
2019-05-14T19:20:03.118Z,0.90
2019-05-14T19:22:33.850Z,1.07
2019-05-14T19:25:04.422Z,1.00
2019-05-14T19:27:34.857Z,0.80
2019-05-14T19:30:08.228Z,0.90
2019-05-14T19:32:39.400Z,0.83
2019-05-14T19:35:10.540Z,1.53
2019-05-14T19:37:41.343Z,1.20
2019-05-14T19:40:12.688Z,0.83
2019-05-14T19:42:43.535Z,1.00
2019-05-14T19:45:14.383Z,0.80
2019-05-14T19:47:45.209Z,0.87
2019-05-14T19:50:18.591Z,0.93
2019-05-14T19:52:48.969Z,0.80
2019-05-14T19:55:19.373Z,0.80
2019-05-14T19:57:50.245Z,0.87
2019-05-14T20:00:25.273Z,0.70
2019-05-14T20:02:58.054Z,0.90
2019-05-14T20:05:28.671Z,1.13
2019-05-14T20:07:59.629Z,0.80
2019-05-14T20:10:30.124Z,0.87
2019-05-14T20:13:00.546Z,0.70
2019-05-14T20:15:31.031Z,0.80
2019-05-14T20:18:01.916Z,1.13
2019-05-14T20:20:33.414Z,1.00
2019-05-14T20:23:03.859Z,1.00
2019-05-14T20:25:34.758Z,0.80
2019-05-14T20:28:05.424Z,0.70
2019-05-14T20:30:38.636Z,1.00
2019-05-14T20:33:09.216Z,1.00
2019-05-14T20:35:39.648Z,0.90
2019-05-14T20:38:10.484Z,0.93
2019-05-14T20:40:40.996Z,0.97
2019-05-14T20:43:11.441Z,0.97
2019-05-14T20:45:41.873Z,1.10
2019-05-14T20:48:12.344Z,1.00
2019-05-14T20:50:42.788Z,0.93
2019-05-14T20:53:13.589Z,1.00
2019-05-14T20:55:44.116Z,0.90
2019-05-14T20:58:15.291Z,0.90
2019-05-14T21:00:45.720Z,1.00
2019-05-14T21:03:18.517Z,1.00
2019-05-14T21:05:49.223Z,1.03
2019-05-14T21:08:20.026Z,0.97
2019-05-14T21:10:50.884Z,1.03
2019-05-14T21:13:22.441Z,0.83
2019-05-14T21:15:53.328Z,0.80
2019-05-14T21:18:34.775Z,0.90
2019-05-14T21:20:57.307Z,0.90
2019-05-14T21:23:29.873Z,1.00
2019-05-14T21:25:59.883Z,1.00
2019-05-14T21:28:30.387Z,0.87
2019-05-14T21:31:01.011Z,0.93
2019-05-14T21:33:32.135Z,1.00
2019-05-14T21:36:02.627Z,0.93
2019-05-14T21:38:33.387Z,0.90
2019-05-14T21:41:03.807Z,1.00
2019-05-14T21:43:34.690Z,1.13
2019-05-14T21:46:05.378Z,0.90
2019-05-14T21:48:35.795Z,0.90
2019-05-14T21:51:08.550Z,1.00
2019-05-14T21:53:41.173Z,1.10
2019-05-14T21:56:10.555Z,1.00
2019-05-14T21:58:41.327Z,0.90
2019-05-14T22:01:12.827Z,1.00
2019-05-14T22:03:43.302Z,1.00
2019-05-14T22:06:13.708Z,1.07
2019-05-14T22:08:44.134Z,0.97
2019-05-14T22:11:14.606Z,1.13
2019-05-14T22:13:45.375Z,0.90
2019-05-14T22:16:16.265Z,1.10
2019-05-14T22:18:48.349Z,1.00
2019-05-14T22:21:18.896Z,1.10
2019-05-14T22:23:49.323Z,1.00
2019-05-14T22:26:19.809Z,1.00
2019-05-14T22:28:50.413Z,1.00
2019-05-14T22:31:20.833Z,1.00
2019-05-14T22:33:51.591Z,1.10
2019-05-14T22:36:22.453Z,1.20
2019-05-14T22:38:52.862Z,1.00
2019-05-14T22:41:23.599Z,1.17
2019-05-14T22:43:56.800Z,0.90
2019-05-14T22:46:26.130Z,1.20
2019-05-14T22:48:58.601Z,1.10
2019-05-14T22:51:28.747Z,1.00
2019-05-14T22:53:59.558Z,0.83
2019-05-14T22:56:30.046Z,0.83
2019-05-14T22:59:00.787Z,0.97
2019-05-14T23:01:31.475Z,0.93
2019-05-14T23:04:01.939Z,1.50
2019-05-14T23:06:33.063Z,1.00
2019-05-14T23:09:04.481Z,1.10
2019-05-14T23:11:34.949Z,0.97
2019-05-14T23:14:07.728Z,1.30
2019-05-14T23:16:41.828Z,1.23
2019-05-14T23:19:10.998Z,1.30
2019-05-14T23:21:41.420Z,1.20
2019-05-14T23:24:11.832Z,1.53
2019-05-14T23:26:42.612Z,1.20
2019-05-14T23:29:13.416Z,1.20
2019-05-14T23:31:44.000Z,1.30
2019-05-14T23:34:14.484Z,1.17
2019-05-14T23:36:44.908Z,1.10
2019-05-14T23:39:15.811Z,1.30
2019-05-14T23:41:48.597Z,1.00
2019-05-14T23:44:19.132Z,1.20
2019-05-14T23:46:49.693Z,1.10
2019-05-14T23:49:20.171Z,1.17
2019-05-14T23:51:50.599Z,1.50
2019-05-14T23:54:21.037Z,1.30
2019-05-14T23:56:51.536Z,1.10
2019-05-14T23:59:21.998Z,1.17
